Time;durP1;ratioP1;P1;durP2;ratioP2;P2;SDS_P1;SDS_P2;PMS_P1;PMS_P2;Temp;Humidity;BMP_temperature;BMP_pressure;BME280_temperature;BME280_humidity;BME280_pressure;Samples;Min_cycle;Max_cycle;Signal;HPM_P1;HPM_P2
2023/08/18 00:03:51;;;;;;;38.10;25.45;;;17.00;99.90;;;;;;7263727;32;20196;-55
2023/08/18 00:07:53;;;;;;;39.17;25.75;;;17.00;99.90;;;;;;7273606;32;20552;-55
2023/08/18 00:11:55;;;;;;;38.20;25.00;;;16.90;99.90;;;;;;7257300;32;20239;-55
2023/08/18 00:15:57;;;;;;;38.08;24.15;;;17.00;99.90;;;;;;7271651;32;20109;-55
2023/08/18 00:19:58;;;;;;;36.70;24.17;;;16.90;99.90;;;;;;7262951;32;20116;-55
2023/08/18 00:24:00;;;;;;;37.70;24.33;;;16.90;99.90;;;;;;7263453;32;20800;-55
2023/08/18 00:28:02;;;;;;;35.80;24.52;;;17.00;99.90;;;;;;7260319;32;20545;-56
2023/08/18 00:32:04;;;;;;;35.13;23.10;;;16.90;99.90;;;;;;7265856;32;20539;-55
2023/08/18 00:36:06;;;;;;;37.28;24.23;;;17.00;99.90;;;;;;7269543;32;20168;-57
2023/08/18 00:40:10;;;;;;;38.05;24.05;;;16.90;99.90;;;;;;7276935;32;20134;-55
2023/08/18 00:44:11;;;;;;;39.10;24.83;;;16.90;99.90;;;;;;7267046;32;20628;-55
2023/08/18 00:48:13;;;;;;;32.55;22.05;;;16.90;99.90;;;;;;7261310;32;20116;-55
2023/08/18 00:52:18;;;;;;;44.17;25.02;;;16.90;99.90;;;;;;7270951;32;20914;-56
2023/08/18 00:56:20;;;;;;;41.65;23.83;;;16.80;99.90;;;;;;7278656;32;20171;-56
2023/08/18 01:00:23;;;;;;;43.03;27.08;;;16.90;99.90;;;;;;7264319;32;20899;-55
2023/08/18 01:04:25;;;;;;;46.95;27.67;;;16.90;99.90;;;;;;7272508;32;20494;-55
2023/08/18 01:08:27;;;;;;;45.22;27.77;;;16.80;99.90;;;;;;7274280;32;20530;-56
2023/08/18 01:12:41;;;;;;;44.17;28.20;;;16.80;99.90;;;;;;7268810;32;20124;-55
2023/08/18 01:16:48;;;;;;;56.08;29.42;;;16.80;99.90;;;;;;7271823;32;20214;-57
2023/08/18 01:20:52;;;;;;;53.25;31.02;;;16.80;99.90;;;;;;7271611;32;20183;-56
2023/08/18 01:25:00;;;;;;;50.55;30.08;;;16.80;99.90;;;;;;7261608;32;20168;-55
2023/08/18 01:29:02;;;;;;;56.67;29.80;;;16.80;99.90;;;;;;7266746;32;20274;-55
2023/08/18 01:33:36;;;;;;;54.28;31.50;;;16.80;99.90;;;;;;7276492;32;20393;-56
2023/08/18 01:37:40;;;;;;;51.60;28.23;;;16.80;99.90;;;;;;7274301;32;20136;-55
2023/08/18 01:41:42;;;;;;;56.03;29.55;;;16.90;99.90;;;;;;7257524;32;20181;-55
2023/08/18 01:45:44;;;;;;;48.22;27.62;;;16.90;99.90;;;;;;7254220;32;20442;-55
2023/08/18 01:49:45;;;;;;;45.53;27.65;;;16.90;99.90;;;;;;7270382;32;20173;-55
2023/08/18 01:53:47;;;;;;;44.50;25.88;;;16.90;99.90;;;;;;7260221;32;20180;-57
2023/08/18 01:57:49;;;;;;;56.00;31.58;;;16.90;99.90;;;;;;7271765;32;20108;-55
2023/08/18 02:01:50;;;;;;;54.17;31.27;;;16.90;99.90;;;;;;7274729;32;20287;-56
2023/08/18 02:05:53;;;;;;;54.35;31.23;;;16.90;99.90;;;;;;7268871;32;20199;-55
2023/08/18 02:09:55;;;;;;;54.47;31.92;;;16.80;99.90;;;;;;7279119;32;20112;-55
2023/08/18 02:13:56;;;;;;;55.80;30.33;;;16.80;99.90;;;;;;7264054;32;20109;-56
2023/08/18 02:17:58;;;;;;;54.88;32.05;;;16.80;99.90;;;;;;7267791;32;20124;-57
2023/08/18 02:22:00;;;;;;;52.35;31.12;;;16.80;99.90;;;;;;7269214;32;20891;-56
2023/08/18 02:26:03;;;;;;;45.15;27.48;;;16.80;99.90;;;;;;7271639;32;20944;-56
2023/08/18 02:30:06;;;;;;;52.03;28.58;;;16.90;99.90;;;;;;7272427;32;20112;-55
2023/08/18 02:34:07;;;;;;;45.72;27.23;;;16.90;99.90;;;;;;7274682;32;20192;-56
2023/08/18 02:38:10;;;;;;;45.97;27.70;;;16.90;99.90;;;;;;7272294;32;20259;-55
2023/08/18 02:42:12;;;;;;;50.40;26.60;;;16.80;99.90;;;;;;7266528;32;20142;-56
2023/08/18 02:46:14;;;;;;;41.22;25.73;;;16.80;99.90;;;;;;7268542;32;20719;-57
2023/08/18 02:50:16;;;;;;;42.53;24.42;;;16.90;99.90;;;;;;7265903;32;20281;-56
2023/08/18 02:54:18;;;;;;;37.25;24.20;;;16.80;99.90;;;;;;7265576;32;20165;-55
2023/08/18 02:58:20;;;;;;;43.87;25.42;;;16.90;99.90;;;;;;7271029;32;20108;-56
2023/08/18 03:02:22;;;;;;;42.78;25.15;;;16.80;99.90;;;;;;7266732;32;20537;-56
2023/08/18 03:06:23;;;;;;;42.33;26.27;;;16.80;99.90;;;;;;7262536;32;20420;-57
2023/08/18 03:10:25;;;;;;;40.08;23.42;;;16.80;99.90;;;;;;7267009;32;20108;-57
2023/08/18 03:14:27;;;;;;;40.65;23.50;;;16.80;99.90;;;;;;7269169;32;20462;-56
2023/08/18 03:18:28;;;;;;;36.88;23.67;;;16.90;99.90;;;;;;7272290;32;21429;-58
2023/08/18 03:22:32;;;;;;;36.63;22.75;;;16.90;99.90;;;;;;7268192;32;20124;-57
2023/08/18 03:26:34;;;;;;;35.13;23.98;;;16.90;99.90;;;;;;7266941;32;20131;-56
2023/08/18 03:30:37;;;;;;;35.53;21.90;;;16.90;99.90;;;;;;7268152;32;20452;-57
2023/08/18 03:34:39;;;;;;;40.45;24.30;;;16.90;99.90;;;;;;7265005;32;20168;-56
2023/08/18 03:38:40;;;;;;;37.85;23.50;;;16.90;99.90;;;;;;7262618;32;20100;-56
2023/08/18 03:42:42;;;;;;;37.60;23.33;;;16.90;99.90;;;;;;7268626;32;20191;-56
2023/08/18 03:46:44;;;;;;;31.23;21.20;;;17.00;99.90;;;;;;7269668;32;20314;-56
2023/08/18 03:50:45;;;;;;;36.10;22.42;;;16.90;99.90;;;;;;7268661;32;20112;-58
2023/08/18 03:54:47;;;;;;;37.75;23.73;;;16.90;99.90;;;;;;7258751;32;20112;-55
2023/08/18 03:58:49;;;;;;;33.90;22.40;;;16.90;99.90;;;;;;7270087;32;20411;-56
2023/08/18 04:02:51;;;;;;;36.50;21.42;;;16.90;99.90;;;;;;7270672;32;20676;-56
2023/08/18 04:06:53;;;;;;;34.90;22.23;;;16.90;99.90;;;;;;7258697;32;20652;-57
2023/08/18 04:10:54;;;;;;;32.67;23.00;;;16.90;99.90;;;;;;7267376;32;20140;-55
2023/08/18 04:14:56;;;;;;;37.33;22.40;;;16.90;99.90;;;;;;7272975;32;20849;-57
2023/08/18 04:18:58;;;;;;;35.15;21.87;;;16.90;99.90;;;;;;7270395;32;20169;-57
2023/08/18 04:23:00;;;;;;;31.58;19.67;;;16.90;99.90;;;;;;7271830;32;20108;-56
2023/08/18 04:27:02;;;;;;;31.62;21.20;;;16.90;99.90;;;;;;7274047;32;20120;-55
2023/08/18 04:31:04;;;;;;;28.33;19.75;;;17.00;99.90;;;;;;7271454;32;20112;-56
2023/08/18 04:35:06;;;;;;;29.83;21.15;;;17.00;99.90;;;;;;7262937;32;20134;-58
2023/08/18 04:39:09;;;;;;;35.90;20.98;;;16.90;99.90;;;;;;7272974;32;20131;-57
2023/08/18 04:43:11;;;;;;;33.10;22.02;;;16.90;99.90;;;;;;7270650;32;20112;-56
2023/08/18 04:47:13;;;;;;;33.45;22.52;;;16.90;99.90;;;;;;7267543;32;20268;-56
2023/08/18 04:51:15;;;;;;;40.83;23.15;;;17.00;99.90;;;;;;7267921;32;20211;-56
2023/08/18 04:55:16;;;;;;;33.10;22.05;;;16.90;99.90;;;;;;7270021;32;20163;-56
2023/08/18 04:59:18;;;;;;;35.83;22.62;;;17.00;99.90;;;;;;7267514;32;20108;-57
2023/08/18 05:03:20;;;;;;;38.05;22.95;;;17.00;99.90;;;;;;7261931;32;20161;-56
2023/08/18 05:07:22;;;;;;;36.17;22.67;;;16.90;99.90;;;;;;7256038;32;20309;-57
2023/08/18 05:11:23;;;;;;;37.95;22.73;;;17.00;99.90;;;;;;7267069;32;20273;-55
2023/08/18 05:15:25;;;;;;;33.83;21.90;;;17.00;99.90;;;;;;7275369;32;20218;-56
2023/08/18 05:19:27;;;;;;;37.47;21.55;;;17.10;99.90;;;;;;7278672;32;20173;-56
2023/08/18 05:23:29;;;;;;;32.65;20.45;;;17.10;99.90;;;;;;7270640;32;20126;-57
2023/08/18 05:27:31;;;;;;;36.83;23.42;;;17.10;99.90;;;;;;7282759;32;20541;-56
2023/08/18 05:31:35;;;;;;;36.65;22.90;;;17.10;99.90;;;;;;7267909;32;20131;-55
2023/08/18 05:35:37;;;;;;;37.97;23.98;;;17.10;99.90;;;;;;7267118;32;20128;-63
2023/08/18 05:39:38;;;;;;;33.67;21.23;;;17.10;99.90;;;;;;7270244;32;20104;-63
2023/08/18 05:43:41;;;;;;;34.55;22.15;;;17.10;99.90;;;;;;7273515;32;20163;-63
2023/08/18 05:47:42;;;;;;;33.15;21.40;;;17.20;99.90;;;;;;7275444;32;20517;-62
2023/08/18 05:51:44;;;;;;;36.63;22.95;;;17.10;99.90;;;;;;7274241;32;20131;-62
2023/08/18 05:55:46;;;;;;;32.15;21.75;;;17.10;99.90;;;;;;7271250;32;20186;-62
2023/08/18 05:59:48;;;;;;;34.80;24.33;;;17.10;99.90;;;;;;7269243;32;20538;-62
2023/08/18 06:03:51;;;;;;;37.72;24.87;;;17.20;99.90;;;;;;7268994;32;20186;-62
2023/08/18 06:07:54;;;;;;;30.08;19.17;;;17.20;99.90;;;;;;7270329;32;20644;-62
2023/08/18 06:11:55;;;;;;;27.77;18.50;;;17.30;99.90;;;;;;7266982;32;20257;-63
2023/08/18 06:16:01;;;;;;;27.23;19.25;;;17.40;99.90;;;;;;7267646;32;20144;-61
2023/08/18 06:20:03;;;;;;;26.87;18.15;;;17.40;99.90;;;;;;7271502;32;20354;-62
2023/08/18 06:24:06;;;;;;;27.17;18.37;;;17.40;99.90;;;;;;7272158;32;20673;-62
2023/08/18 06:28:07;;;;;;;26.62;18.35;;;17.40;99.90;;;;;;7271248;32;20625;-63
2023/08/18 06:32:09;;;;;;;26.23;17.12;;;17.40;99.90;;;;;;7273948;32;20265;-62
2023/08/18 06:36:11;;;;;;;23.02;16.17;;;17.50;99.90;;;;;;7269860;32;20228;-62
2023/08/18 06:40:13;;;;;;;23.15;15.02;;;17.50;99.90;;;;;;7268219;32;20232;-63
2023/08/18 06:44:15;;;;;;;21.48;15.63;;;17.50;99.90;;;;;;7269668;32;20154;-62
2023/08/18 06:48:17;;;;;;;22.10;15.93;;;17.60;99.90;;;;;;7270528;32;20173;-62
2023/08/18 06:52:18;;;;;;;24.12;16.52;;;17.60;99.90;;;;;;7268840;32;20278;-62
2023/08/18 06:56:20;;;;;;;20.48;15.75;;;17.60;99.90;;;;;;7265416;32;20161;-62
2023/08/18 07:00:22;;;;;;;23.08;15.82;;;17.80;99.90;;;;;;7268635;32;20226;-62
2023/08/18 07:04:23;;;;;;;22.65;16.02;;;17.90;99.90;;;;;;7273420;32;20210;-63
2023/08/18 07:08:26;;;;;;;25.60;16.25;;;17.80;99.90;;;;;;7268583;32;20123;-56
2023/08/18 07:12:27;;;;;;;23.73;14.73;;;17.90;99.90;;;;;;7269691;32;20218;-56
2023/08/18 07:16:30;;;;;;;19.02;13.68;;;17.90;99.90;;;;;;7268428;32;20116;-56
2023/08/18 07:20:32;;;;;;;18.17;13.80;;;18.00;99.90;;;;;;7269566;32;20236;-56
2023/08/18 07:24:34;;;;;;;17.70;14.07;;;18.20;99.90;;;;;;7262888;32;20336;-56
2023/08/18 07:28:36;;;;;;;19.42;13.98;;;18.30;99.90;;;;;;7273267;32;20136;-55
2023/08/18 07:32:37;;;;;;;17.48;12.80;;;18.20;99.90;;;;;;7268532;32;20265;-55
2023/08/18 07:36:39;;;;;;;18.52;12.35;;;18.50;99.90;;;;;;7267606;32;20621;-57
2023/08/18 07:40:41;;;;;;;18.10;12.55;;;18.60;99.90;;;;;;7264716;32;20177;-56
2023/08/18 07:44:43;;;;;;;13.20;10.75;;;18.70;99.90;;;;;;7267992;32;20131;-57
2023/08/18 07:48:45;;;;;;;16.73;12.77;;;18.80;99.90;;;;;;7265996;32;20132;-55
2023/08/18 07:52:47;;;;;;;13.40;10.82;;;18.80;99.90;;;;;;7262920;32;20175;-57
2023/08/18 07:56:48;;;;;;;11.10;9.65;;;19.10;99.90;;;;;;7270311;32;20288;-56
2023/08/18 08:00:51;;;;;;;13.02;10.13;;;19.10;99.90;;;;;;7270713;32;20294;-57
2023/08/18 08:04:53;;;;;;;14.68;10.77;;;19.20;99.90;;;;;;7269640;32;20329;-57
2023/08/18 08:08:55;;;;;;;10.35;9.25;;;19.30;99.90;;;;;;7270492;32;20308;-57
2023/08/18 08:12:57;;;;;;;11.63;8.75;;;19.50;99.90;;;;;;7271530;32;20404;-57
2023/08/18 08:16:59;;;;;;;9.82;8.15;;;19.80;99.90;;;;;;7268113;32;20210;-57
2023/08/18 08:21:00;;;;;;;8.70;7.57;;;20.00;99.90;;;;;;7271441;32;20533;-57
2023/08/18 08:25:02;;;;;;;10.52;8.27;;;20.20;99.90;;;;;;7272408;32;20208;-57
2023/08/18 08:29:04;;;;;;;7.93;6.70;;;20.30;99.90;;;;;;7271020;32;20815;-57
2023/08/18 08:33:08;;;;;;;7.07;6.25;;;20.50;99.90;;;;;;7268794;32;20157;-57
2023/08/18 08:37:10;;;;;;;8.73;5.95;;;20.80;99.90;;;;;;7267423;32;20120;-56
2023/08/18 08:41:11;;;;;;;8.45;7.50;;;20.80;99.90;;;;;;7271770;32;20247;-56
2023/08/18 08:45:13;;;;;;;8.27;6.37;;;20.70;99.90;;;;;;7270597;32;20792;-57
2023/08/18 08:49:16;;;;;;;5.80;5.05;;;21.40;99.90;;;;;;7270365;32;20266;-57
2023/08/18 08:53:27;;;;;;;7.28;5.97;;;21.70;99.90;;;;;;7270253;32;20108;-57
2023/08/18 08:57:28;;;;;;;5.45;3.33;;;22.60;99.90;;;;;;7282762;32;20257;-58
2023/08/18 09:01:30;;;;;;;7.18;4.05;;;24.90;99.90;;;;;;7275732;32;20115;-57
2023/08/18 09:05:32;;;;;;;3.65;3.35;;;24.70;99.90;;;;;;7274350;32;20108;-57
2023/08/18 09:09:34;;;;;;;6.15;3.87;;;24.50;99.90;;;;;;7274348;32;20210;-57
2023/08/18 09:13:36;;;;;;;6.00;3.60;;;24.70;99.90;;;;;;7275638;32;20133;-58
2023/08/18 09:17:38;;;;;;;6.70;4.80;;;24.40;99.90;;;;;;7272406;32;20163;-57
2023/08/18 09:21:42;;;;;;;4.93;3.70;;;23.70;99.90;;;;;;7269139;32;20510;-64
2023/08/18 09:25:44;;;;;;;5.30;3.80;;;23.90;99.90;;;;;;7271956;32;20195;-64
2023/08/18 09:29:45;;;;;;;5.15;3.55;;;24.60;99.90;;;;;;7278841;32;20270;-65
2023/08/18 09:33:47;;;;;;;4.57;3.40;;;25.70;99.90;;;;;;7271085;32;20105;-64
2023/08/18 09:37:59;;;;;;;5.15;2.85;;;26.00;99.90;;;;;;7270417;32;20250;-65
2023/08/18 09:42:02;;;;;;;4.40;3.92;;;26.30;99.90;;;;;;7267759;32;20117;-57
2023/08/18 09:46:05;;;;;;;4.43;3.92;;;25.50;99.90;;;;;;7269148;32;20167;-57
2023/08/18 09:50:10;;;;;;;4.30;3.03;;;26.60;99.90;;;;;;7269128;32;20126;-57
2023/08/18 09:54:13;;;;;;;5.43;2.78;;;27.50;99.90;;;;;;7265694;32;20130;-57
2023/08/18 09:58:47;;;;;;;3.30;2.90;;;28.40;99.90;;;;;;7272482;32;20131;-56
2023/08/18 10:02:52;;;;;;;4.20;3.15;;;28.70;99.90;;;;;;7270128;32;20302;-58
2023/08/18 10:06:54;;;;;;;5.05;3.17;;;28.40;99.90;;;;;;7270725;32;20460;-58
2023/08/18 10:10:56;;;;;;;3.95;2.97;;;29.00;99.90;;;;;;7271736;32;20113;-58
2023/08/18 10:14:58;;;;;;;5.12;2.50;;;28.80;99.90;;;;;;7272408;32;20134;-58
2023/08/18 10:19:00;;;;;;;3.20;2.78;;;28.60;99.90;;;;;;7272051;32;20152;-58
2023/08/18 10:23:02;;;;;;;3.87;2.67;;;28.00;99.90;;;;;;7269093;32;20384;-58
2023/08/18 10:27:07;;;;;;;3.20;2.45;;;27.80;99.90;;;;;;7270876;32;20100;-58
2023/08/18 10:31:11;;;;;;;3.25;2.53;;;27.70;99.90;;;;;;7272288;32;20120;-58
2023/08/18 10:35:22;;;;;;;6.78;3.90;;;27.20;99.90;;;;;;7271340;32;20168;-56
2023/08/18 10:39:26;;;;;;;4.97;3.03;;;26.50;99.90;;;;;;7272470;32;20218;-56
2023/08/18 10:43:28;;;;;;;3.50;2.65;;;26.40;99.90;;;;;;7269709;32;20132;-56
2023/08/18 10:47:32;;;;;;;5.65;2.97;;;26.20;99.90;;;;;;7268144;32;20132;-56
2023/08/18 10:51:34;;;;;;;5.95;3.10;;;26.00;99.90;;;;;;7271424;32;20127;-56
2023/08/18 10:55:36;;;;;;;4.68;2.70;;;25.70;99.90;;;;;;7267336;32;20127;-56
2023/08/18 10:59:37;;;;;;;3.92;3.10;;;25.50;99.90;;;;;;7284063;32;20143;-56
2023/08/18 11:03:39;;;;;;;4.37;3.83;;;26.00;99.90;;;;;;7265130;32;20101;-57
2023/08/18 11:07:41;;;;;;;3.40;3.10;;;26.40;99.90;;;;;;7268861;32;20214;-56
2023/08/18 11:11:43;;;;;;;4.55;3.15;;;26.70;99.90;;;;;;7267765;32;20249;-56
2023/08/18 11:15:44;;;;;;;5.57;3.37;;;26.90;99.90;;;;;;7266900;32;20292;-56
2023/08/18 11:19:46;;;;;;;6.57;3.28;;;27.10;99.90;;;;;;7261580;32;20108;-57
2023/08/18 11:23:48;;;;;;;5.72;3.80;;;26.90;99.90;;;;;;7260546;32;20915;-55
2023/08/18 11:27:52;;;;;;;5.30;3.80;;;26.60;99.90;;;;;;7264019;32;20133;-56
2023/08/18 11:31:54;;;;;;;4.40;3.75;;;26.20;99.90;;;;;;7262853;32;20139;-56
2023/08/18 11:35:55;;;;;;;4.37;3.97;;;26.20;99.90;;;;;;7268170;32;20233;-56
2023/08/18 11:39:57;;;;;;;7.30;3.80;;;26.20;99.90;;;;;;7273169;32;20120;-58
2023/08/18 11:43:59;;;;;;;5.75;3.80;;;26.50;99.90;;;;;;7271019;32;20112;-56
2023/08/18 11:48:04;;;;;;;4.80;3.80;;;26.70;99.90;;;;;;7275788;32;20180;-57
2023/08/18 11:52:06;;;;;;;6.53;3.80;;;26.80;99.90;;;;;;7276196;32;20112;-56
2023/08/18 11:56:08;;;;;;;5.87;4.10;;;27.00;99.90;;;;;;7273757;32;20167;-56
2023/08/18 12:00:13;;;;;;;5.97;4.10;;;27.20;99.90;;;;;;7271390;32;20121;-56
2023/08/18 12:04:15;;;;;;;4.28;3.87;;;27.50;99.90;;;;;;7267196;32;20176;-57
2023/08/18 12:08:17;;;;;;;4.32;3.92;;;27.60;99.90;;;;;;7264889;32;20136;-57
2023/08/18 12:12:20;;;;;;;4.20;3.85;;;27.90;99.90;;;;;;7264733;32;20105;-58
2023/08/18 12:16:21;;;;;;;4.35;3.95;;;27.90;99.90;;;;;;7262229;32;20251;-57
2023/08/18 12:20:24;;;;;;;7.82;4.05;;;27.70;99.90;;;;;;7266232;32;20258;-57
2023/08/18 12:24:25;;;;;;;4.95;4.45;;;27.70;99.90;;;;;;7269443;32;20530;-58
2023/08/18 12:28:27;;;;;;;8.65;4.70;;;27.60;99.90;;;;;;7274717;32;20379;-57
2023/08/18 12:32:30;;;;;;;6.45;4.53;;;27.60;99.90;;;;;;7283209;32;20130;-57
2023/08/18 12:36:33;;;;;;;4.70;4.20;;;27.70;99.90;;;;;;7272437;32;20169;-56
2023/08/18 12:40:35;;;;;;;5.57;4.32;;;27.80;99.90;;;;;;7262662;32;20734;-56
2023/08/18 12:44:37;;;;;;;6.65;4.40;;;27.50;99.90;;;;;;7275555;32;20112;-57
2023/08/18 12:48:40;;;;;;;6.03;4.47;;;27.70;99.90;;;;;;7273033;32;20581;-56
2023/08/18 12:52:42;;;;;;;4.53;3.80;;;28.10;99.90;;;;;;7270971;32;20575;-56
2023/08/18 12:56:44;;;;;;;4.28;3.87;;;28.40;99.90;;;;;;7274166;32;20124;-56
2023/08/18 13:00:45;;;;;;;5.90;4.40;;;28.70;99.90;;;;;;7272998;32;20190;-58
2023/08/18 13:04:47;;;;;;;4.87;4.22;;;28.90;99.90;;;;;;7272764;32;20162;-56
2023/08/18 13:08:49;;;;;;;4.70;4.07;;;29.10;99.90;;;;;;7270577;32;20258;-56
2023/08/18 13:12:51;;;;;;;5.65;5.05;;;28.40;99.90;;;;;;7265336;32;20163;-56
2023/08/18 13:16:53;;;;;;;8.43;4.55;;;28.80;99.90;;;;;;7266332;32;20116;-58
2023/08/18 13:21:00;;;;;;;6.07;4.37;;;29.10;99.90;;;;;;7277000;32;20132;-56
2023/08/18 13:25:12;;;;;;;5.43;4.82;;;28.90;99.90;;;;;;7281413;32;20289;-56
2023/08/18 13:29:14;;;;;;;6.12;5.07;;;29.00;99.90;;;;;;7267353;32;20108;-56
2023/08/18 13:33:16;;;;;;;4.70;4.10;;;28.50;99.90;;;;;;7272859;32;20135;-57
2023/08/18 13:37:18;;;;;;;5.12;4.62;;;28.70;99.90;;;;;;7265174;32;20112;-56
2023/08/18 13:41:19;;;;;;;9.52;5.15;;;28.70;99.90;;;;;;7270135;32;20870;-53
2023/08/18 13:45:21;;;;;;;8.38;4.43;;;28.50;99.90;;;;;;7270696;32;20128;-57
2023/08/18 13:49:26;;;;;;;10.05;5.00;;;28.50;99.90;;;;;;7268666;32;20124;-57
2023/08/18 13:53:30;;;;;;;6.70;5.20;;;28.80;99.90;;;;;;7275549;32;20146;-57
2023/08/18 13:57:31;;;;;;;6.20;5.00;;;28.90;99.90;;;;;;7270363;32;20230;-56
2023/08/18 14:01:34;;;;;;;6.37;4.75;;;29.40;99.90;;;;;;7271241;32;20138;-56
2023/08/18 14:05:41;;;;;;;6.40;4.65;;;29.70;99.90;;;;;;7265914;32;20196;-57
2023/08/18 14:09:43;;;;;;;7.43;4.75;;;30.00;99.90;;;;;;7273514;32;20476;-57
2023/08/18 14:13:44;;;;;;;5.82;5.05;;;30.00;99.90;;;;;;7271471;32;20342;-58
2023/08/18 14:17:47;;;;;;;5.85;4.82;;;30.10;99.90;;;;;;7275242;32;20272;-57
2023/08/18 14:21:49;;;;;;;6.20;4.97;;;29.90;99.90;;;;;;7270859;32;20112;-57
2023/08/18 14:25:53;;;;;;;5.90;5.05;;;29.80;99.90;;;;;;7271903;32;21028;-57
2023/08/18 14:29:55;;;;;;;5.55;5.00;;;29.00;99.90;;;;;;7263484;32;20692;-56
2023/08/18 14:33:57;;;;;;;6.93;4.85;;;28.70;99.90;;;;;;7269067;32;20258;-57
2023/08/18 14:37:59;;;;;;;5.47;4.70;;;28.60;99.90;;;;;;7273592;32;20112;-56
2023/08/18 14:42:01;;;;;;;6.28;4.85;;;28.90;99.90;;;;;;7263211;32;20210;-57
2023/08/18 14:46:05;;;;;;;5.85;4.68;;;29.10;99.90;;;;;;7262950;32;20140;-58
2023/08/18 14:50:07;;;;;;;6.80;4.60;;;28.70;99.90;;;;;;7267323;32;22177;-57
2023/08/18 14:54:09;;;;;;;5.95;5.20;;;28.60;99.90;;;;;;7268222;32;20139;-57
2023/08/18 14:58:11;;;;;;;5.68;5.15;;;28.60;99.90;;;;;;7270459;32;20112;-57
2023/08/18 15:02:13;;;;;;;6.18;5.68;;;29.20;99.90;;;;;;7270361;32;20116;-58
2023/08/18 15:06:14;;;;;;;6.20;5.05;;;29.30;99.90;;;;;;7270560;32;20104;-57
2023/08/18 15:10:16;;;;;;;6.85;5.57;;;29.30;99.90;;;;;;7271436;32;20195;-57
2023/08/18 15:14:27;;;;;;;7.53;5.70;;;29.20;99.90;;;;;;7271629;32;20763;-57
2023/08/18 15:18:30;;;;;;;7.03;5.43;;;28.70;99.90;;;;;;7265224;32;20108;-56
2023/08/18 15:22:32;;;;;;;8.10;5.70;;;28.70;99.90;;;;;;7258676;32;20112;-58
2023/08/18 15:26:38;;;;;;;12.50;7.00;;;29.00;99.90;;;;;;7264703;32;20778;-56
2023/08/18 15:30:40;;;;;;;7.18;5.82;;;29.10;99.90;;;;;;7260934;32;20157;-58
2023/08/18 15:34:41;;;;;;;10.38;6.60;;;28.70;99.90;;;;;;7266765;32;20113;-58
2023/08/18 15:38:43;;;;;;;5.82;5.10;;;28.60;99.90;;;;;;7268505;32;20113;-56
2023/08/18 15:42:45;;;;;;;6.82;5.60;;;28.60;99.90;;;;;;7266494;32;20448;-58
2023/08/18 15:46:48;;;;;;;11.02;6.53;;;28.30;99.90;;;;;;7265232;32;20255;-58
2023/08/18 15:50:50;;;;;;;9.00;7.07;;;28.20;99.90;;;;;;7267343;32;20115;-56
2023/08/18 15:54:52;;;;;;;6.90;6.20;;;28.10;99.90;;;;;;7272088;32;20116;-58
2023/08/18 15:58:54;;;;;;;6.68;5.95;;;28.00;99.90;;;;;;7267338;32;20503;-57
2023/08/18 16:02:57;;;;;;;8.73;5.78;;;28.00;99.90;;;;;;7265400;32;20116;-57
2023/08/18 16:06:59;;;;;;;8.18;5.65;;;27.80;99.90;;;;;;7267994;32;20124;-57
2023/08/18 16:11:02;;;;;;;7.37;5.90;;;27.70;99.90;;;;;;7269508;32;20112;-56
2023/08/18 16:15:04;;;;;;;7.55;5.62;;;27.60;99.90;;;;;;7270860;32;20195;-56
2023/08/18 16:19:08;;;;;;;6.53;5.93;;;27.60;99.90;;;;;;7266720;32;21760;-57
2023/08/18 16:23:10;;;;;;;9.77;6.90;;;27.30;99.90;;;;;;7267838;32;20199;-56
2023/08/18 16:27:14;;;;;;;9.23;6.68;;;27.20;99.90;;;;;;7266870;32;20243;-57
2023/08/18 16:31:15;;;;;;;10.93;8.43;;;27.10;99.90;;;;;;7262415;32;22189;-57
2023/08/18 16:35:17;;;;;;;183.43;107.20;;;27.10;99.90;;;;;;7264484;32;20190;-60
2023/08/18 16:39:19;;;;;;;20.92;13.95;;;27.00;99.90;;;;;;7272285;32;20178;-59
2023/08/18 16:43:21;;;;;;;11.12;7.53;;;26.90;99.90;;;;;;7275929;32;20305;-58
2023/08/18 16:47:23;;;;;;;8.95;7.40;;;27.00;99.90;;;;;;7266024;32;20104;-57
2023/08/18 16:51:24;;;;;;;10.90;7.95;;;26.90;99.90;;;;;;7275091;32;20451;-57
2023/08/18 16:55:26;;;;;;;10.80;6.85;;;26.80;99.90;;;;;;7267651;32;20649;-57
2023/08/18 16:59:32;;;;;;;9.98;6.68;;;26.80;99.90;;;;;;7263668;32;20230;-57
2023/08/18 17:03:34;;;;;;;8.30;6.95;;;26.70;99.90;;;;;;7266217;32;20366;-57
2023/08/18 17:07:38;;;;;;;12.43;7.35;;;26.60;99.90;;;;;;7269486;32;20100;-57
2023/08/18 17:11:40;;;;;;;9.20;6.80;;;26.50;99.90;;;;;;7267350;32;20162;-57
2023/08/18 17:15:42;;;;;;;10.38;7.43;;;26.40;99.90;;;;;;7265769;32;20230;-56
2023/08/18 17:19:47;;;;;;;9.30;6.80;;;26.30;99.90;;;;;;7268851;32;20510;-56
2023/08/18 17:23:50;;;;;;;7.78;7.05;;;26.00;99.90;;;;;;7266219;32;20140;-57
2023/08/18 17:27:51;;;;;;;8.68;7.65;;;25.90;99.90;;;;;;7267778;32;20136;-57
2023/08/18 17:31:53;;;;;;;8.02;7.32;;;26.00;99.90;;;;;;7260768;32;20167;-57
2023/08/18 17:35:55;;;;;;;13.57;10.82;;;25.90;99.90;;;;;;7266867;32;21500;-56
2023/08/18 17:39:57;;;;;;;9.23;7.87;;;25.70;99.90;;;;;;7263692;32;21229;-56
2023/08/18 17:43:59;;;;;;;8.43;7.62;;;25.70;99.90;;;;;;7269826;32;20549;-57
2023/08/18 17:48:00;;;;;;;9.40;7.22;;;25.60;99.90;;;;;;7271337;32;20158;-56
2023/08/18 17:52:02;;;;;;;28.55;21.52;;;25.50;99.90;;;;;;7275199;32;20142;-56
2023/08/18 17:56:04;;;;;;;16.23;8.57;;;25.50;99.90;;;;;;7274522;32;20120;-56
2023/08/18 18:00:06;;;;;;;10.27;7.68;;;25.40;99.90;;;;;;7274660;32;20281;-56
2023/08/18 18:04:08;;;;;;;10.00;7.20;;;25.30;99.90;;;;;;7267604;32;20200;-57
2023/08/18 18:08:15;;;;;;;10.02;8.20;;;25.20;99.90;;;;;;7268160;32;20116;-57
2023/08/18 18:12:16;;;;;;;11.68;7.32;;;25.20;99.90;;;;;;7270518;32;20145;-57
2023/08/18 18:16:18;;;;;;;13.55;8.10;;;25.10;99.90;;;;;;7266803;32;20136;-57
2023/08/18 18:20:20;;;;;;;9.18;7.20;;;25.00;99.90;;;;;;7271940;32;20254;-57
2023/08/18 18:24:22;;;;;;;10.27;8.38;;;24.90;99.90;;;;;;7275488;32;20115;-58
2023/08/18 18:28:24;;;;;;;12.77;8.05;;;24.70;99.90;;;;;;7272506;32;20286;-58
2023/08/18 18:32:25;;;;;;;13.38;8.93;;;24.60;99.90;;;;;;7267954;32;20192;-56
2023/08/18 18:36:27;;;;;;;12.23;8.57;;;24.40;99.90;;;;;;7270290;32;20258;-57
2023/08/18 18:40:29;;;;;;;9.48;8.40;;;24.30;99.90;;;;;;7269406;32;20120;-57
2023/08/18 18:44:32;;;;;;;10.82;8.65;;;24.20;99.90;;;;;;7269814;32;20518;-58
2023/08/18 18:48:37;;;;;;;12.63;9.23;;;24.20;99.90;;;;;;7263253;32;20221;-57
2023/08/18 18:52:39;;;;;;;11.75;8.90;;;24.10;99.90;;;;;;7272148;32;20113;-57
2023/08/18 18:56:42;;;;;;;12.30;8.73;;;23.90;99.90;;;;;;7266889;32;21373;-58
2023/08/18 19:00:43;;;;;;;9.48;8.20;;;23.80;99.90;;;;;;7264759;32;20240;-56
2023/08/18 19:04:45;;;;;;;16.17;9.25;;;23.70;99.90;;;;;;7273271;32;20177;-56
2023/08/18 19:08:47;;;;;;;13.85;8.90;;;23.50;99.90;;;;;;7267826;32;20267;-57
2023/08/18 19:12:49;;;;;;;11.25;8.82;;;23.40;99.90;;;;;;7276871;32;20131;-57
2023/08/18 19:16:51;;;;;;;11.45;8.35;;;23.30;99.90;;;;;;7271743;32;20243;-56
2023/08/18 19:20:53;;;;;;;9.32;8.43;;;23.20;99.90;;;;;;7269370;32;20297;-57
2023/08/18 19:24:56;;;;;;;13.77;9.95;;;23.00;99.90;;;;;;7269609;32;20171;-57
2023/08/18 19:28:57;;;;;;;9.98;9.00;;;23.00;99.90;;;;;;7263979;32;20550;-57
2023/08/18 19:32:59;;;;;;;10.95;8.93;;;22.90;99.90;;;;;;7269840;32;20128;-57
2023/08/18 19:37:01;;;;;;;14.73;9.02;;;22.80;99.90;;;;;;7269694;32;20478;-57
2023/08/18 19:41:07;;;;;;;9.80;8.80;;;22.70;99.90;;;;;;7269239;32;20600;-57
2023/08/18 19:45:09;;;;;;;11.52;9.07;;;22.60;99.90;;;;;;7270579;32;20236;-57
2023/08/18 19:49:11;;;;;;;9.98;8.75;;;22.50;99.90;;;;;;7274275;32;20107;-56
2023/08/18 19:53:13;;;;;;;14.07;8.43;;;22.50;99.90;;;;;;7265344;32;20216;-57
2023/08/18 19:57:15;;;;;;;13.98;9.60;;;22.40;99.90;;;;;;7267297;32;20474;-55
2023/08/18 20:01:18;;;;;;;11.70;8.55;;;22.40;99.90;;;;;;7274563;32;20132;-58
2023/08/18 20:05:20;;;;;;;13.13;9.27;;;22.40;99.90;;;;;;7262796;32;20136;-56
2023/08/18 20:09:22;;;;;;;9.80;8.52;;;22.30;99.90;;;;;;7271252;32;20151;-55
2023/08/18 20:13:23;;;;;;;14.35;9.50;;;22.30;99.90;;;;;;7268802;32;20104;-56
2023/08/18 20:17:25;;;;;;;16.10;9.35;;;22.30;99.90;;;;;;7272668;32;20108;-56
2023/08/18 20:21:27;;;;;;;10.13;8.68;;;22.10;99.90;;;;;;7266433;32;20277;-57
2023/08/18 20:25:29;;;;;;;14.82;9.98;;;22.10;99.90;;;;;;7265003;32;20231;-56
2023/08/18 20:29:30;;;;;;;10.10;8.43;;;22.00;99.90;;;;;;7269311;32;20128;-56
2023/08/18 20:33:33;;;;;;;12.93;8.93;;;21.90;99.90;;;;;;7269069;32;20192;-56
2023/08/18 20:37:35;;;;;;;13.93;9.68;;;21.80;99.90;;;;;;7270677;32;20230;-57
2023/08/18 20:41:36;;;;;;;14.00;10.77;;;21.70;99.90;;;;;;7266745;32;20180;-56
2023/08/18 20:45:38;;;;;;;10.98;8.70;;;21.70;99.90;;;;;;7264747;32;20239;-57
2023/08/18 20:49:40;;;;;;;14.20;8.88;;;21.50;99.90;;;;;;7273616;32;20171;-57